Terminal Aerodrome Forecast
Issued by NWS Tampa Bay Area, FL

Home | Current Version | Previous Version | Text Only | Print | Product List | Glossary On
Versions: 1 2 3 4 5 6 7 8 9 10 11 12 13 14 15 16 17 18 19 20 21 22 23 24 25 26
000
FTUS42 KTBW 242100 AAA
TAFTPA
TAF AMD
KTPA 242107Z 2421/2518 26010KT P6SM FEW040
     FM250100 VRB04KT P6SM SKC
     FM250800 VRB03KT 5SM BR SKC
     FM251300 25006KT P6SM FEW020=

USA.gov is the U.S. government's official web portal to all federal, state and local government web resources and services.